PROFILE

 METAR AND TAF INFORMATION
ADDS - METARS form results

(1521 UTC 20 June 2019)
http://aviationweather.gov/metar/data/
 
FKYS 201500Z 24003KT 190V270 8000 BKN010 23/21 Q1017 NOSIG
TAF FKYS 201100Z 2012/2112 14005KT 9999 TS FEW006 SCT020CB BECMG 2012/2014 BKN010 FEW016CB TEMPO 4000 TSRA BECMG 2018/2022 NSW BKN006 BECMG 2104/2108 BKN010 

 AIRPORT MAP

 RUNWAY INFORMATION
Runway 01 Runway length 11155 ft Runway width 148 ft
Runway elevation 2263 ft Runway displaced threshold 0 ft Runway heading 10
Runway 19 Runway length 11155 ft Runway width 148 ft
Runway elevation 2276 ft Runway displaced threshold 0 ft Runway heading 190

 AIRPORT FREQUENCIES
Type APP Name APP Frequency 121.3 MHZ
Type TWR Name TWR Frequency 119.1 MHZ

 AIRPORT NEAR NAVIGATION AIDS
Type VOR-DME Name Yaounde Nsimalen Frequency 115700 KHZ
Type NDB Name Yaounde Nsimalen Frequency 368 KHZ